createdAt,value
2017-07-29T00:00:01.399Z,100050
2017-07-29T00:00:59.631Z,100034
2017-07-29T00:01:59.662Z,100039
2017-07-29T00:02:59.718Z,100037
2017-07-29T00:03:59.842Z,100030
2017-07-29T00:05:01.754Z,100036
2017-07-29T00:06:01.654Z,100036
2017-07-29T00:07:01.665Z,100038
2017-07-29T00:08:01.595Z,100040
2017-07-29T00:09:00.965Z,100036
2017-07-29T00:10:01.726Z,100034
2017-07-29T00:11:01.408Z,100036
2017-07-29T00:12:00.220Z,100032
2017-07-29T00:13:00.258Z,100035
2017-07-29T00:14:00.270Z,100032
2017-07-29T00:15:00.294Z,100037
2017-07-29T00:16:01.387Z,100027
2017-07-29T00:17:01.645Z,100040
2017-07-29T00:18:01.562Z,100039
2017-07-29T00:19:01.565Z,100027
2017-07-29T00:20:01.530Z,100036
2017-07-29T00:21:02.296Z,100037
2017-07-29T00:22:02.423Z,100034
2017-07-29T00:23:01.002Z,100031
2017-07-29T00:24:00.738Z,100032
2017-07-29T00:25:00.758Z,100033
2017-07-29T00:26:00.900Z,100021
2017-07-29T00:27:02.568Z,100028
2017-07-29T00:28:02.663Z,100024
2017-07-29T00:29:02.292Z,100013
2017-07-29T00:30:02.099Z,100016
2017-07-29T00:31:01.319Z,100013
2017-07-29T00:32:01.299Z,100001
2017-07-29T00:33:01.354Z,100005
2017-07-29T00:34:01.376Z,100007
2017-07-29T00:35:01.840Z,99998
2017-07-29T00:36:02.487Z,100001
2017-07-29T00:37:01.557Z,99992
2017-07-29T00:38:01.579Z,99998
2017-07-29T00:39:01.740Z,99993
2017-07-29T00:40:02.735Z,99987
2017-07-29T00:41:02.060Z,99990
2017-07-29T00:42:01.764Z,99992
2017-07-29T00:43:01.825Z,99990
2017-07-29T00:44:01.848Z,99986
2017-07-29T00:45:03.597Z,99988
2017-07-29T00:46:02.023Z,99984
2017-07-29T00:47:03.194Z,99984
2017-07-29T00:48:02.012Z,99975
2017-07-29T00:49:02.107Z,99979
2017-07-29T00:50:02.136Z,99978
2017-07-29T00:51:02.192Z,99971
2017-07-29T00:52:04.018Z,99962
2017-07-29T00:53:04.288Z,99968
2017-07-29T00:54:02.378Z,99963
2017-07-29T00:55:02.421Z,99967
2017-07-29T00:56:04.207Z,99960
2017-07-29T00:57:02.494Z,99972
2017-07-29T00:58:03.511Z,99975
2017-07-29T00:59:02.890Z,99973
2017-07-29T01:00:03.738Z,99970
2017-07-29T01:01:02.698Z,99975
2017-07-29T01:02:04.414Z,99971
2017-07-29T01:03:03.761Z,99963
2017-07-29T01:04:02.849Z,99974
2017-07-29T01:05:04.856Z,99960
2017-07-29T01:06:03.922Z,99966
2017-07-29T01:07:04.750Z,99963
2017-07-29T01:08:04.745Z,99968
2017-07-29T01:09:04.830Z,99965
2017-07-29T01:10:03.065Z,99966
2017-07-29T01:11:05.158Z,99954
2017-07-29T01:12:04.135Z,99959
2017-07-29T01:13:03.252Z,99960
2017-07-29T01:14:04.423Z,99960
2017-07-29T01:15:03.357Z,99947
2017-07-29T01:16:03.506Z,99954
2017-07-29T01:17:03.755Z,99949
2017-07-29T01:18:05.290Z,99952
2017-07-29T01:19:03.763Z,99950
2017-07-29T01:20:03.728Z,99949
2017-07-29T01:21:05.325Z,99950
2017-07-29T01:22:06.594Z,99941
2017-07-29T01:23:04.116Z,99942
2017-07-29T01:24:04.962Z,99945
2017-07-29T01:25:05.047Z,99943
2017-07-29T01:26:04.046Z,99942
2017-07-29T01:27:04.211Z,99939
2017-07-29T01:28:04.146Z,99949
2017-07-29T01:29:05.318Z,99944
2017-07-29T01:30:06.074Z,99943
2017-07-29T01:31:04.357Z,99939
2017-07-29T01:32:04.294Z,99938
2017-07-29T01:33:04.452Z,99931
2017-07-29T01:34:06.148Z,99934
2017-07-29T01:35:04.661Z,99932
2017-07-29T01:36:04.406Z,99942
2017-07-29T01:37:05.470Z,99946
2017-07-29T01:38:05.399Z,99949
2017-07-29T01:39:05.405Z,99946
2017-07-29T01:40:05.462Z,99947
2017-07-29T01:41:05.847Z,99944
2017-07-29T01:42:05.716Z,99936
2017-07-29T01:43:04.715Z,99926
2017-07-29T01:44:04.828Z,99934
2017-07-29T01:45:06.666Z,99932
2017-07-29T01:46:04.965Z,99916
2017-07-29T01:47:06.945Z,99919
2017-07-29T01:48:05.945Z,99907
2017-07-29T01:49:05.200Z,99914
2017-07-29T01:50:05.253Z,99910
2017-07-29T01:51:05.257Z,99923
2017-07-29T01:52:06.989Z,99919
2017-07-29T01:53:05.732Z,99919
2017-07-29T01:54:07.206Z,99919
2017-07-29T01:55:05.445Z,99913
2017-07-29T01:56:08.312Z,99925
2017-07-29T01:57:07.311Z,99921
2017-07-29T01:58:05.616Z,99921
2017-07-29T01:59:05.997Z,99922
2017-07-29T02:00:06.857Z,99916
2017-07-29T02:01:06.932Z,99923
2017-07-29T02:02:07.562Z,99923
2017-07-29T02:03:05.987Z,99922
2017-07-29T02:04:05.983Z,99923
2017-07-29T02:05:06.418Z,99923
2017-07-29T02:06:07.046Z,99916
2017-07-29T02:07:06.250Z,99915
2017-07-29T02:08:06.288Z,99919
2017-07-29T02:09:06.230Z,99918
2017-07-29T02:10:08.005Z,99919
2017-07-29T02:11:06.696Z,99906
2017-07-29T02:12:06.319Z,99911
2017-07-29T02:13:06.411Z,99914
2017-07-29T02:14:06.396Z,99911
2017-07-29T02:15:06.395Z,99918
2017-07-29T02:16:08.227Z,99905
2017-07-29T02:17:06.778Z,99912
2017-07-29T02:18:07.666Z,99917
2017-07-29T02:19:06.689Z,99917
2017-07-29T02:20:07.741Z,99917
2017-07-29T02:21:06.856Z,99922
2017-07-29T02:22:08.955Z,99911
2017-07-29T02:23:08.006Z,99920
2017-07-29T02:24:08.855Z,99922
2017-07-29T02:25:07.168Z,99917
2017-07-29T02:26:08.907Z,99911
2017-07-29T02:27:08.345Z,99919
2017-07-29T02:28:08.649Z,99915
2017-07-29T02:29:08.336Z,99920
2017-07-29T02:30:08.526Z,99908
2017-07-29T02:31:08.607Z,99923
2017-07-29T02:32:07.638Z,99919
2017-07-29T02:33:07.701Z,99913
2017-07-29T02:34:09.887Z,99920
2017-07-29T02:35:07.933Z,99917
2017-07-29T02:36:07.991Z,99907
2017-07-29T02:37:07.973Z,99915
2017-07-29T02:38:08.123Z,99916
2017-07-29T02:39:08.098Z,99919
2017-07-29T02:40:08.395Z,99911
2017-07-29T02:41:08.201Z,99916
2017-07-29T02:42:08.264Z,99908
2017-07-29T02:43:08.285Z,99909
2017-07-29T02:44:09.967Z,99909
2017-07-29T02:45:08.442Z,99904
2017-07-29T02:46:10.393Z,99906
2017-07-29T02:47:09.392Z,99909
2017-07-29T02:48:10.073Z,99903
2017-07-29T02:49:10.080Z,99895
2017-07-29T02:50:09.430Z,99904
2017-07-29T02:51:08.675Z,99896
2017-07-29T02:52:08.978Z,99892
2017-07-29T02:53:10.466Z,99906
2017-07-29T02:54:09.787Z,99895
2017-07-29T02:55:10.499Z,99900
2017-07-29T02:56:10.606Z,99902
2017-07-29T02:57:08.843Z,99895
2017-07-29T02:58:09.110Z,99902
2017-07-29T02:59:08.980Z,99890
2017-07-29T03:00:08.904Z,99894
2017-07-29T03:01:10.735Z,99899
2017-07-29T03:02:10.818Z,99887
2017-07-29T03:03:09.122Z,99903
2017-07-29T03:04:10.372Z,99895
2017-07-29T03:05:09.177Z,99910
2017-07-29T03:06:09.163Z,99915
2017-07-29T03:07:09.187Z,99911
2017-07-29T03:08:10.890Z,99912
2017-07-29T03:09:09.341Z,99903
2017-07-29T03:10:09.608Z,99908
2017-07-29T03:11:11.102Z,99899
2017-07-29T03:12:09.512Z,99904
2017-07-29T03:13:11.169Z,99906
2017-07-29T03:14:10.617Z,99904
2017-07-29T03:15:11.418Z,99896
2017-07-29T03:16:11.679Z,99903
2017-07-29T03:17:10.626Z,99889
2017-07-29T03:18:11.358Z,99899
2017-07-29T03:19:10.686Z,99894
2017-07-29T03:20:09.803Z,99895
2017-07-29T03:21:09.988Z,99891
2017-07-29T03:22:11.865Z,99897
2017-07-29T03:23:11.650Z,99901
2017-07-29T03:24:10.043Z,99902
2017-07-29T03:25:10.227Z,99901
2017-07-29T03:26:10.245Z,99903
2017-07-29T03:27:11.947Z,99903
2017-07-29T03:28:11.646Z,99903
2017-07-29T03:29:10.392Z,99895
2017-07-29T03:30:11.460Z,99893
2017-07-29T03:31:10.485Z,99899
2017-07-29T03:32:12.186Z,99899
2017-07-29T03:33:12.214Z,99901
2017-07-29T03:34:11.674Z,99907
2017-07-29T03:35:12.270Z,99897
2017-07-29T03:36:11.464Z,99900
2017-07-29T03:37:10.644Z,99895
2017-07-29T03:38:12.383Z,99896
2017-07-29T03:39:11.574Z,99902
2017-07-29T03:40:10.925Z,99897
2017-07-29T03:41:12.490Z,99894
2017-07-29T03:42:11.673Z,99894
2017-07-29T03:43:10.789Z,99889
2017-07-29T03:44:10.883Z,99883
2017-07-29T03:45:11.087Z,99898
2017-07-29T03:46:11.420Z,99896
2017-07-29T03:47:12.027Z,99893
2017-07-29T03:48:11.217Z,99887
2017-07-29T03:49:12.293Z,99893
2017-07-29T03:50:12.193Z,99891
2017-07-29T03:51:11.385Z,99895
2017-07-29T03:52:11.704Z,99894
2017-07-29T03:53:11.365Z,99885
2017-07-29T03:54:11.518Z,99889
2017-07-29T03:55:11.536Z,99886
2017-07-29T03:56:13.273Z,99881
2017-07-29T03:57:13.176Z,99886
2017-07-29T03:58:11.938Z,99892
2017-07-29T03:59:13.277Z,99888
2017-07-29T04:00:11.720Z,99899
2017-07-29T04:01:12.753Z,99903
2017-07-29T04:02:12.715Z,99895
2017-07-29T04:03:12.884Z,99887
2017-07-29T04:04:12.235Z,99886
2017-07-29T04:05:11.931Z,99883
2017-07-29T04:06:12.863Z,99887
2017-07-29T04:07:13.705Z,99876
2017-07-29T04:08:12.073Z,99881
2017-07-29T04:09:12.049Z,99879
2017-07-29T04:10:13.366Z,99891
2017-07-29T04:11:12.271Z,99886
2017-07-29T04:12:13.224Z,99892
2017-07-29T04:13:12.438Z,99890
2017-07-29T04:14:13.361Z,99891
2017-07-29T04:15:13.574Z,99894
2017-07-29T04:16:13.941Z,99892
2017-07-29T04:17:14.398Z,99888
2017-07-29T04:18:12.813Z,99898
2017-07-29T04:19:13.833Z,99902
2017-07-29T04:20:13.917Z,99888
2017-07-29T04:21:14.014Z,99892
2017-07-29T04:22:13.401Z,99894
2017-07-29T04:23:14.028Z,99895
2017-07-29T04:24:14.781Z,99910
2017-07-29T04:25:13.138Z,99914
2017-07-29T04:26:13.265Z,99907
2017-07-29T04:27:13.347Z,99906
2017-07-29T04:28:13.721Z,99898
2017-07-29T04:29:14.455Z,99896
2017-07-29T04:30:13.459Z,99896
2017-07-29T04:32:55.904Z,99888
2017-07-29T04:33:54.647Z,99895
2017-07-29T04:34:56.022Z,99886
2017-07-29T04:35:54.407Z,99900
2017-07-29T04:36:54.583Z,99899
2017-07-29T04:37:54.664Z,99902
2017-07-29T04:38:55.683Z,99902
2017-07-29T04:39:56.635Z,99913
2017-07-29T04:40:56.501Z,99907
2017-07-29T04:41:54.814Z,99905
2017-07-29T04:42:54.967Z,99910
2017-07-29T04:43:56.703Z,99905
2017-07-29T04:44:56.761Z,99909
2017-07-29T04:45:57.125Z,99910
2017-07-29T04:46:56.765Z,99911
2017-07-29T04:47:56.234Z,99908
2017-07-29T04:48:57.049Z,99907
2017-07-29T04:49:57.019Z,99910
2017-07-29T04:50:56.460Z,99903
2017-07-29T04:51:55.809Z,99893
2017-07-29T04:52:55.568Z,99901
2017-07-29T04:53:55.625Z,99897
2017-07-29T04:54:56.539Z,99911
2017-07-29T04:55:55.618Z,99910
2017-07-29T04:56:55.713Z,99918
2017-07-29T04:57:57.658Z,99915
2017-07-29T04:58:55.738Z,99913
2017-07-29T04:59:56.896Z,99913
2017-07-29T05:00:55.904Z,99913
2017-07-29T05:01:56.089Z,99906
2017-07-29T05:02:57.143Z,99896
2017-07-29T05:03:58.195Z,99904
2017-07-29T05:04:56.188Z,99907
2017-07-29T05:05:56.123Z,99906
2017-07-29T05:06:56.195Z,99913
2017-07-29T05:07:58.066Z,99916
2017-07-29T05:08:56.438Z,99916
2017-07-29T05:09:56.706Z,99907
2017-07-29T05:10:58.168Z,99914
2017-07-29T05:11:56.453Z,99907
2017-07-29T05:12:58.158Z,99900
2017-07-29T05:13:56.528Z,99909
2017-07-29T05:14:58.315Z,99898
2017-07-29T05:15:57.823Z,99907
2017-07-29T05:16:56.736Z,99905
2017-07-29T05:17:56.831Z,99901
2017-07-29T05:18:58.408Z,99906
2017-07-29T05:19:56.764Z,99894
2017-07-29T05:20:56.856Z,99911
2017-07-29T05:21:58.272Z,99911
2017-07-29T05:22:57.958Z,99902
2017-07-29T05:23:57.064Z,99909
2017-07-29T05:24:58.712Z,99909
2017-07-29T05:25:57.078Z,99906
2017-07-29T05:26:58.201Z,99907
2017-07-29T05:27:59.120Z,99914
2017-07-29T05:28:57.277Z,99914
2017-07-29T05:29:59.051Z,99915
2017-07-29T05:30:58.303Z,99900
2017-07-29T05:31:57.363Z,99908
2017-07-29T05:32:58.495Z,99904
2017-07-29T05:33:57.760Z,99901
2017-07-29T05:34:57.672Z,99889
2017-07-29T05:35:59.343Z,99901
2017-07-29T05:36:59.497Z,99900
2017-07-29T05:37:57.898Z,99898
2017-07-29T05:38:58.098Z,99880
2017-07-29T05:39:57.866Z,99890
2017-07-29T05:40:58.036Z,99894
2017-07-29T05:41:57.987Z,99893
2017-07-29T05:42:58.051Z,99895
2017-07-29T05:43:58.187Z,99900
2017-07-29T05:44:58.458Z,99896
2017-07-29T05:45:58.175Z,99907
2017-07-29T05:46:58.296Z,99908
2017-07-29T05:48:00.055Z,99906
2017-07-29T05:49:00.027Z,99918
2017-07-29T05:49:58.483Z,99904
2017-07-29T05:50:58.740Z,99910
2017-07-29T05:51:58.628Z,99913
2017-07-29T05:53:00.208Z,99918
2017-07-29T05:53:58.673Z,99919
2017-07-29T05:54:58.751Z,99912
2017-07-29T05:55:58.831Z,99923
2017-07-29T05:56:59.150Z,99922
2017-07-29T05:57:59.793Z,99923
2017-07-29T05:58:58.968Z,99921
2017-07-29T06:00:00.634Z,99928
2017-07-29T06:01:00.014Z,99921
2017-07-29T06:02:00.759Z,99921
2017-07-29T06:03:00.346Z,99923
2017-07-29T06:04:00.972Z,99925
2017-07-29T06:05:00.974Z,99927
2017-07-29T06:06:00.944Z,99926
2017-07-29T06:07:00.364Z,99924
2017-07-29T06:08:01.040Z,99920
2017-07-29T06:09:01.358Z,99916
2017-07-29T06:10:01.086Z,99914
2017-07-29T06:10:59.615Z,99924
2017-07-29T06:11:59.691Z,99924
2017-07-29T06:12:59.687Z,99919
2017-07-29T06:14:01.486Z,99912
2017-07-29T06:15:00.113Z,99920
2017-07-29T06:15:59.894Z,99915
2017-07-29T06:16:59.869Z,99920
2017-07-29T06:18:01.661Z,99915
2017-07-29T06:18:59.917Z,99915
2017-07-29T06:20:01.672Z,99916
2017-07-29T06:21:01.990Z,99914
2017-07-29T06:22:01.047Z,99914
2017-07-29T06:23:00.133Z,99909
2017-07-29T06:24:01.279Z,99906
2017-07-29T06:25:00.300Z,99906
2017-07-29T06:26:00.307Z,99908
2017-07-29T06:27:00.718Z,99909
2017-07-29T06:28:02.089Z,99903
2017-07-29T06:29:00.459Z,99905
2017-07-29T06:30:01.495Z,99900
2017-07-29T06:31:00.647Z,99925
2017-07-29T06:32:01.641Z,99909
2017-07-29T06:33:02.724Z,99910
2017-07-29T06:34:00.834Z,99909
2017-07-29T06:35:01.788Z,99925
2017-07-29T06:36:02.599Z,99924
2017-07-29T06:37:02.080Z,99914
2017-07-29T06:38:02.690Z,99915
2017-07-29T06:39:01.458Z,99923
2017-07-29T06:40:01.222Z,99924
2017-07-29T06:41:01.265Z,99931
2017-07-29T06:42:02.893Z,99928
2017-07-29T06:43:01.331Z,99939
2017-07-29T06:44:02.378Z,99939
2017-07-29T06:45:03.459Z,99934
2017-07-29T06:46:03.130Z,99937
2017-07-29T06:47:02.545Z,99936
2017-07-29T06:48:01.669Z,99935
2017-07-29T06:49:02.566Z,99921
2017-07-29T06:50:01.708Z,99938
2017-07-29T06:51:01.963Z,99932
2017-07-29T06:52:01.836Z,99930
2017-07-29T06:53:03.505Z,99944
2017-07-29T06:54:02.883Z,99942
2017-07-29T06:55:03.668Z,99930
2017-07-29T06:56:02.963Z,99941
2017-07-29T06:57:02.462Z,99943
2017-07-29T06:58:02.122Z,99937
2017-07-29T06:59:03.932Z,99935
2017-07-29T07:00:02.314Z,99944
2017-07-29T07:01:02.277Z,99942
2017-07-29T07:02:02.401Z,99951
2017-07-29T07:03:02.693Z,99937
2017-07-29T07:04:03.451Z,99947
2017-07-29T07:05:04.207Z,99930
2017-07-29T07:06:03.557Z,99953
2017-07-29T07:07:02.501Z,99943
2017-07-29T07:08:02.576Z,99943
2017-07-29T07:09:03.832Z,99941
2017-07-29T07:10:04.416Z,99950
2017-07-29T07:11:02.730Z,99957
2017-07-29T07:12:03.796Z,99949
2017-07-29T07:13:03.795Z,99949
2017-07-29T07:14:02.933Z,99949
2017-07-29T07:15:03.178Z,99960
2017-07-29T07:16:04.047Z,99963
2017-07-29T07:17:03.082Z,99954
2017-07-29T07:18:04.683Z,99959
2017-07-29T07:19:04.137Z,99955
2017-07-29T07:20:03.175Z,99955
2017-07-29T07:21:03.463Z,99955
2017-07-29T07:22:03.199Z,99967
2017-07-29T07:23:04.995Z,99953
2017-07-29T07:24:03.356Z,99968
2017-07-29T07:25:03.370Z,99963
2017-07-29T07:26:03.389Z,99963
2017-07-29T07:27:04.790Z,99966
2017-07-29T07:28:05.096Z,99969
2017-07-29T07:29:04.440Z,99970
2017-07-29T07:30:04.485Z,99972
2017-07-29T07:31:04.537Z,99971
2017-07-29T07:32:04.603Z,99962
2017-07-29T07:33:04.043Z,99962
2017-07-29T07:34:05.378Z,99980
2017-07-29T07:35:05.552Z,99978
2017-07-29T07:36:05.594Z,99968
2017-07-29T07:37:05.534Z,99968
2017-07-29T07:38:03.934Z,99976
2017-07-29T07:39:05.913Z,99969
2017-07-29T07:40:03.996Z,99974
2017-07-29T07:41:04.029Z,99972
2017-07-29T07:42:04.133Z,99982
2017-07-29T07:43:04.107Z,99976
2017-07-29T07:44:05.969Z,99975
2017-07-29T07:45:05.465Z,99982
2017-07-29T07:46:05.963Z,99980
2017-07-29T07:47:05.290Z,99979
2017-07-29T07:48:05.492Z,99980
2017-07-29T07:49:04.532Z,99975
2017-07-29T07:50:04.437Z,99969
2017-07-29T07:51:05.700Z,99973
2017-07-29T07:52:05.615Z,99959
2017-07-29T07:53:04.523Z,99988
2017-07-29T07:54:04.540Z,99976
2017-07-29T07:55:05.629Z,99967
2017-07-29T07:56:06.348Z,99982
2017-07-29T07:57:04.906Z,99978
2017-07-29T07:58:04.648Z,99973
2017-07-29T07:59:04.804Z,99975
2017-07-29T08:00:04.795Z,99983
2017-07-29T08:01:06.668Z,99992
2017-07-29T08:02:05.062Z,100000
2017-07-29T08:03:05.399Z,99978
2017-07-29T08:04:06.050Z,99983
2017-07-29T08:05:05.233Z,99989
2017-07-29T08:06:06.283Z,99986
2017-07-29T08:07:07.050Z,99992
2017-07-29T08:08:05.343Z,99989
2017-07-29T08:09:07.380Z,99991
2017-07-29T08:10:07.184Z,99988
2017-07-29T08:11:06.423Z,99989
2017-07-29T08:12:05.548Z,99994
2017-07-29T08:13:07.385Z,100006
2017-07-29T08:14:07.478Z,99997
2017-07-29T08:15:05.983Z,100003
2017-07-29T08:16:06.821Z,99994
2017-07-29T08:17:05.823Z,99995
2017-07-29T08:18:06.035Z,99988
2017-07-29T08:19:06.034Z,99982
2017-07-29T08:20:06.959Z,99998
2017-07-29T08:21:07.349Z,99994
2017-07-29T08:22:06.147Z,99994
2017-07-29T08:23:06.107Z,99994
2017-07-29T08:24:06.191Z,100005
2017-07-29T08:25:06.322Z,99993
2017-07-29T08:26:06.332Z,99995
2017-07-29T08:27:06.579Z,99994
2017-07-29T08:28:07.451Z,99992
2017-07-29T08:29:07.363Z,99977
2017-07-29T08:30:07.540Z,99995
2017-07-29T08:31:07.492Z,99991
2017-07-29T08:32:07.610Z,99995
2017-07-29T08:33:08.555Z,99992
2017-07-29T08:34:07.636Z,99990
2017-07-29T08:35:06.619Z,99986
2017-07-29T08:36:06.750Z,99990
2017-07-29T08:37:07.755Z,99998
2017-07-29T08:38:06.802Z,99994
2017-07-29T08:39:07.651Z,99989
2017-07-29T08:40:06.794Z,99992
2017-07-29T08:41:06.819Z,99996
2017-07-29T08:42:08.638Z,99996
2017-07-29T08:43:06.911Z,99993
2017-07-29T08:44:08.795Z,99999
2017-07-29T08:45:07.469Z,100001
2017-07-29T08:46:08.817Z,100002
2017-07-29T08:47:08.835Z,100001
2017-07-29T08:48:07.398Z,100000
2017-07-29T08:49:09.158Z,99995
2017-07-29T08:50:07.427Z,100004
2017-07-29T08:51:08.759Z,100002
2017-07-29T08:52:07.654Z,100005
2017-07-29T08:53:08.590Z,100005
2017-07-29T08:54:08.737Z,100009
2017-07-29T08:55:09.341Z,100013
2017-07-29T08:56:08.215Z,100009
2017-07-29T08:57:09.852Z,100005
2017-07-29T08:58:08.909Z,100004
2017-07-29T08:59:07.900Z,99996
2017-07-29T09:00:09.038Z,100007
2017-07-29T09:01:09.011Z,100010
2017-07-29T09:02:09.910Z,100002
2017-07-29T09:03:09.527Z,100005
2017-07-29T09:04:09.220Z,100008
2017-07-29T09:05:08.327Z,100010
2017-07-29T09:06:09.347Z,100016
2017-07-29T09:07:10.106Z,100015
2017-07-29T09:08:08.448Z,100016
2017-07-29T09:09:09.812Z,100007
2017-07-29T09:10:09.430Z,100020
2017-07-29T09:11:08.610Z,100017
2017-07-29T09:12:08.592Z,100020
2017-07-29T09:13:08.608Z,100020
2017-07-29T09:14:09.694Z,100014
2017-07-29T09:15:10.668Z,100019
2017-07-29T09:16:08.645Z,100021
2017-07-29T09:17:09.620Z,100023
2017-07-29T09:18:10.487Z,100022
2017-07-29T09:19:08.778Z,100020
2017-07-29T09:20:08.966Z,100016
2017-07-29T09:21:09.241Z,100018
2017-07-29T09:22:10.728Z,100014
2017-07-29T09:23:09.053Z,100014
2017-07-29T09:24:09.124Z,100011
2017-07-29T09:25:10.754Z,100009
2017-07-29T09:26:10.912Z,100014
2017-07-29T09:27:10.480Z,99999
2017-07-29T09:28:10.875Z,100013
2017-07-29T09:29:10.305Z,100008
2017-07-29T09:30:10.213Z,100012
2017-07-29T09:31:10.253Z,100004
2017-07-29T09:32:09.325Z,100007
2017-07-29T09:33:09.742Z,100000
2017-07-29T09:34:11.127Z,100016
2017-07-29T09:35:09.626Z,100014
2017-07-29T09:36:11.303Z,100016
2017-07-29T09:37:10.639Z,100006
2017-07-29T09:38:09.741Z,100003
2017-07-29T09:39:10.061Z,100011
2017-07-29T09:40:11.621Z,100009
2017-07-29T09:41:10.826Z,100006
2017-07-29T09:42:11.572Z,100013
2017-07-29T09:43:11.040Z,100008
2017-07-29T09:44:10.061Z,100011
2017-07-29T09:45:10.391Z,100013
2017-07-29T09:46:11.864Z,100009
2017-07-29T09:47:10.098Z,100005
2017-07-29T09:48:11.151Z,100009
2017-07-29T09:49:10.329Z,100013
2017-07-29T09:50:10.364Z,100012
2017-07-29T09:51:12.267Z,100006
2017-07-29T09:52:10.454Z,100011
2017-07-29T09:53:12.097Z,100021
2017-07-29T09:54:11.430Z,100011
2017-07-29T09:55:10.618Z,100018
2017-07-29T09:56:11.508Z,100006
2017-07-29T09:57:12.518Z,100021
2017-07-29T09:58:11.719Z,100016
2017-07-29T09:59:11.735Z,100023
2017-07-29T10:00:12.484Z,100021
2017-07-29T10:01:11.738Z,100020
2017-07-29T10:02:12.533Z,100018
2017-07-29T10:03:11.343Z,100018
2017-07-29T10:04:11.105Z,100021
2017-07-29T10:05:12.004Z,100024
2017-07-29T10:06:12.773Z,100018
2017-07-29T10:07:11.122Z,100019
2017-07-29T10:08:11.316Z,100025
2017-07-29T10:09:13.279Z,100016
2017-07-29T10:10:13.001Z,100018
2017-07-29T10:11:11.299Z,100014
2017-07-29T10:12:12.287Z,100026
2017-07-29T10:13:12.480Z,100024
2017-07-29T10:14:13.406Z,100029
2017-07-29T10:15:13.531Z,100027
2017-07-29T10:16:11.638Z,100020
2017-07-29T10:17:11.650Z,100014
2017-07-29T10:18:11.580Z,100036
2017-07-29T10:19:12.616Z,100033
2017-07-29T10:20:12.357Z,100038
2017-07-29T10:21:13.741Z,100038
2017-07-29T10:22:13.478Z,100033
2017-07-29T10:23:11.752Z,100028
2017-07-29T10:24:11.959Z,100032
2017-07-29T10:25:11.995Z,100039
2017-07-29T10:26:13.843Z,100026
2017-07-29T10:27:12.371Z,100032
2017-07-29T10:28:12.160Z,100024
2017-07-29T10:29:12.181Z,100022
2017-07-29T10:30:12.130Z,100026
2017-07-29T10:31:13.786Z,100029
2017-07-29T10:32:13.197Z,100032
2017-07-29T10:33:12.498Z,100036
2017-07-29T10:34:13.284Z,100036
2017-07-29T10:35:13.936Z,100020
2017-07-29T10:36:12.457Z,100027
2017-07-29T10:37:12.410Z,100030
2017-07-29T10:38:13.502Z,100022
2017-07-29T10:39:12.935Z,100016
2017-07-29T10:40:12.554Z,100030
2017-07-29T10:41:12.756Z,100026
2017-07-29T10:42:12.729Z,100016
2017-07-29T10:43:14.568Z,100022
2017-07-29T10:44:14.527Z,100011
2017-07-29T10:45:14.847Z,100015
2017-07-29T10:46:12.930Z,100020
2017-07-29T10:47:13.657Z,100016
2017-07-29T10:48:13.093Z,100019
2017-07-29T10:49:13.116Z,100017
2017-07-29T10:50:14.254Z,100026
2017-07-29T10:51:13.605Z,100017
2017-07-29T10:52:13.255Z,100024
2017-07-29T10:53:13.271Z,100030
2017-07-29T10:54:14.330Z,100030
2017-07-29T10:55:13.393Z,100026
2017-07-29T10:56:13.430Z,100029
2017-07-29T10:57:13.771Z,100030
2017-07-29T10:58:15.206Z,100033
2017-07-29T10:59:13.711Z,100035
2017-07-29T11:00:13.701Z,100032
2017-07-29T11:01:15.524Z,100038
2017-07-29T11:02:14.931Z,100031
2017-07-29T11:03:13.919Z,100031
2017-07-29T11:04:15.661Z,100030
2017-07-29T11:05:15.720Z,100034
2017-07-29T11:06:15.717Z,100034
2017-07-29T11:07:14.183Z,100039
2017-07-29T11:08:14.144Z,100044
2017-07-29T11:09:15.294Z,100038
2017-07-29T11:10:15.920Z,100038
2017-07-29T11:11:14.383Z,100031
2017-07-29T11:12:16.158Z,100039
2017-07-29T11:13:17.493Z,100045
2017-07-29T11:14:14.593Z,100047
2017-07-29T11:15:14.666Z,100041
2017-07-29T11:16:15.740Z,100049
2017-07-29T11:17:14.692Z,100048
2017-07-29T11:18:14.723Z,100046
2017-07-29T11:19:15.686Z,100042
2017-07-29T11:20:14.935Z,100041
2017-07-29T11:21:15.855Z,100036
2017-07-29T11:22:15.955Z,100033
2017-07-29T11:23:14.895Z,100047
2017-07-29T11:24:14.998Z,100030
2017-07-29T11:25:15.987Z,100031
2017-07-29T11:26:15.047Z,100043
2017-07-29T11:27:14.965Z,100042
2017-07-29T11:28:15.053Z,100043
2017-07-29T11:29:15.041Z,100039
2017-07-29T11:30:15.100Z,100035
2017-07-29T11:31:15.215Z,100038
2017-07-29T11:32:15.148Z,100034
2017-07-29T11:33:16.992Z,100037
2017-07-29T11:34:17.001Z,100039
2017-07-29T11:35:16.262Z,100038
2017-07-29T11:36:16.340Z,100029
2017-07-29T11:37:15.538Z,100023
2017-07-29T11:38:17.135Z,100030
2017-07-29T11:39:17.138Z,100036
2017-07-29T11:40:17.235Z,100037
2017-07-29T11:41:17.341Z,100036
2017-07-29T11:42:16.576Z,100033
2017-07-29T11:43:17.400Z,100029
2017-07-29T11:44:17.415Z,100038
2017-07-29T11:45:17.384Z,100030
2017-07-29T11:46:16.798Z,100032
2017-07-29T11:47:16.874Z,100027
2017-07-29T11:48:15.951Z,100032
2017-07-29T11:49:17.721Z,100031
2017-07-29T11:50:17.030Z,100037
2017-07-29T11:51:16.060Z,100035
2017-07-29T11:52:15.978Z,100028
2017-07-29T11:53:16.089Z,100038
2017-07-29T11:54:16.098Z,100043
2017-07-29T11:55:18.457Z,100042
2017-07-29T11:56:17.969Z,100036
2017-07-29T11:57:17.361Z,100040
2017-07-29T11:58:18.011Z,100043
2017-07-29T11:59:17.419Z,100034
2017-07-29T12:00:18.168Z,100039
2017-07-29T12:01:16.472Z,100040
2017-07-29T12:02:16.407Z,100028
2017-07-29T12:03:17.467Z,100035
2017-07-29T12:04:18.364Z,100038
2017-07-29T12:05:17.542Z,100036
2017-07-29T12:06:16.770Z,100026
2017-07-29T12:07:16.793Z,100031
2017-07-29T12:08:17.851Z,100027
2017-07-29T12:09:17.524Z,100030
2017-07-29T12:10:16.924Z,100021
2017-07-29T12:11:17.852Z,100031
2017-07-29T12:12:18.572Z,100024
2017-07-29T12:13:17.030Z,100030
2017-07-29T12:14:17.128Z,100035
2017-07-29T12:15:18.051Z,100030
2017-07-29T12:16:17.198Z,100020
2017-07-29T12:17:18.915Z,100026
2017-07-29T12:18:17.146Z,100022
2017-07-29T12:19:17.224Z,100025
2017-07-29T12:20:17.403Z,100027
2017-07-29T12:21:19.115Z,100026
2017-07-29T12:22:17.328Z,100028
2017-07-29T12:23:17.391Z,100023
2017-07-29T12:24:17.499Z,100028
2017-07-29T12:25:17.689Z,100028
2017-07-29T12:26:19.307Z,100017
2017-07-29T12:27:19.459Z,100027
2017-07-29T12:28:17.855Z,100021
2017-07-29T12:29:19.622Z,100025
2017-07-29T12:30:17.917Z,100017
2017-07-29T12:31:19.736Z,100024
2017-07-29T12:32:18.014Z,100017
2017-07-29T12:33:18.046Z,100021
2017-07-29T12:34:18.191Z,100023
2017-07-29T12:35:18.271Z,100017
2017-07-29T12:36:18.198Z,100005
2017-07-29T12:37:19.242Z,100018
2017-07-29T12:38:18.421Z,100012
2017-07-29T12:40:18.970Z,100016
2017-07-29T12:41:20.190Z,100014
2017-07-29T12:42:18.470Z,100016
2017-07-29T12:43:20.235Z,100011
2017-07-29T12:44:18.723Z,100014
2017-07-29T12:45:18.649Z,100025
2017-07-29T12:46:18.735Z,100019